sensor_id;sensor_type;location;lat;lon;timestamp;temperature;humidity
15274;DHT22;7738;49.532;11.156;2023-05-13T00:05:26;7.80;99.90
15274;DHT22;7738;49.532;11.156;2023-05-13T00:13:06;8.00;99.90
15274;DHT22;7738;49.532;11.156;2023-05-13T00:23:07;7.90;99.90
15274;DHT22;7738;49.532;11.156;2023-05-13T00:28:10;7.20;99.90
15274;DHT22;7738;49.532;11.156;2023-05-13T00:40:44;7.20;99.90
15274;DHT22;7738;49.532;11.156;2023-05-13T00:43:17;7.40;99.90
15274;DHT22;7738;49.532;11.156;2023-05-13T00:48:17;7.60;99.90
15274;DHT22;7738;49.532;11.156;2023-05-13T00:50:48;7.40;99.90
15274;DHT22;7738;49.532;11.156;2023-05-13T00:55:49;7.50;99.90
15274;DHT22;7738;49.532;11.156;2023-05-13T00:58:21;7.40;99.90
15274;DHT22;7738;49.532;11.156;2023-05-13T01:01:04;7.40;99.90
15274;DHT22;7738;49.532;11.156;2023-05-13T01:03:41;7.30;99.90
15274;DHT22;7738;49.532;11.156;2023-05-13T01:06:15;7.40;99.90
15274;DHT22;7738;49.532;11.156;2023-05-13T01:09:00;7.40;99.90
15274;DHT22;7738;49.532;11.156;2023-05-13T01:11:33;7.50;99.90
15274;DHT22;7738;49.532;11.156;2023-05-13T01:14:11;7.40;99.90
15274;DHT22;7738;49.532;11.156;2023-05-13T01:16:47;7.40;99.90
15274;DHT22;7738;49.532;11.156;2023-05-13T01:19:29;7.50;99.90
15274;DHT22;7738;49.532;11.156;2023-05-13T01:22:05;7.30;99.90
15274;DHT22;7738;49.532;11.156;2023-05-13T01:32:08;7.00;99.90
15274;DHT22;7738;49.532;11.156;2023-05-13T01:34:39;7.40;99.90
15274;DHT22;7738;49.532;11.156;2023-05-13T01:37:12;7.40;99.90
15274;DHT22;7738;49.532;11.156;2023-05-13T01:39:43;7.00;99.90
15274;DHT22;7738;49.532;11.156;2023-05-13T01:49:47;7.20;99.90
15274;DHT22;7738;49.532;11.156;2023-05-13T01:52:19;7.20;99.90
15274;DHT22;7738;49.532;11.156;2023-05-13T01:54:49;7.20;99.90
15274;DHT22;7738;49.532;11.156;2023-05-13T02:02:20;7.30;99.90
15274;DHT22;7738;49.532;11.156;2023-05-13T02:04:50;7.00;99.90
15274;DHT22;7738;49.532;11.156;2023-05-13T02:07:23;7.00;99.90
15274;DHT22;7738;49.532;11.156;2023-05-13T02:14:56;7.60;99.90
15274;DHT22;7738;49.532;11.156;2023-05-13T02:22:30;7.80;99.90
15274;DHT22;7738;49.532;11.156;2023-05-13T02:25:00;7.30;99.90
15274;DHT22;7738;49.532;11.156;2023-05-13T02:27:30;7.30;99.90
15274;DHT22;7738;49.532;11.156;2023-05-13T02:32:31;7.30;99.90
15274;DHT22;7738;49.532;11.156;2023-05-13T02:35:01;7.40;99.90
15274;DHT22;7738;49.532;11.156;2023-05-13T02:37:33;7.20;99.90
15274;DHT22;7738;49.532;11.156;2023-05-13T02:40:05;8.10;99.90
15274;DHT22;7738;49.532;11.156;2023-05-13T02:42:35;7.90;99.90
15274;DHT22;7738;49.532;11.156;2023-05-13T02:45:08;7.50;99.90
15274;DHT22;7738;49.532;11.156;2023-05-13T02:52:45;7.20;99.90
15274;DHT22;7738;49.532;11.156;2023-05-13T02:57:46;7.70;99.90
15274;DHT22;7738;49.532;11.156;2023-05-13T03:00:17;7.30;99.90
15274;DHT22;7738;49.532;11.156;2023-05-13T03:05:18;7.30;99.90
15274;DHT22;7738;49.532;11.156;2023-05-13T03:07:51;7.80;99.90
15274;DHT22;7738;49.532;11.156;2023-05-13T03:12:51;7.70;99.90
15274;DHT22;7738;49.532;11.156;2023-05-13T03:22:57;7.80;99.90
15274;DHT22;7738;49.532;11.156;2023-05-13T03:25:27;7.30;99.90
15274;DHT22;7738;49.532;11.156;2023-05-13T03:27:58;7.80;99.90
15274;DHT22;7738;49.532;11.156;2023-05-13T03:30:30;7.70;99.90
15274;DHT22;7738;49.532;11.156;2023-05-13T03:38:08;7.50;99.90
15274;DHT22;7738;49.532;11.156;2023-05-13T03:40:43;7.60;99.90
15274;DHT22;7738;49.532;11.156;2023-05-13T03:45:48;7.80;99.90
15274;DHT22;7738;49.532;11.156;2023-05-13T03:50:52;7.70;99.90
15274;DHT22;7738;49.532;11.156;2023-05-13T03:53:25;7.70;99.90
15274;DHT22;7738;49.532;11.156;2023-05-13T03:55:55;8.10;99.90
15274;DHT22;7738;49.532;11.156;2023-05-13T03:58:27;7.60;99.90
15274;DHT22;7738;49.532;11.156;2023-05-13T04:00:57;7.40;99.90
15274;DHT22;7738;49.532;11.156;2023-05-13T04:03:27;8.00;99.90
15274;DHT22;7738;49.532;11.156;2023-05-13T04:05:57;7.90;99.90
15274;DHT22;7738;49.532;11.156;2023-05-13T04:08:30;7.70;99.90
15274;DHT22;7738;49.532;11.156;2023-05-13T04:13:32;7.80;99.90
15274;DHT22;7738;49.532;11.156;2023-05-13T04:18:33;7.80;99.90
15274;DHT22;7738;49.532;11.156;2023-05-13T04:21:05;8.10;99.90
15274;DHT22;7738;49.532;11.156;2023-05-13T04:23:38;8.10;99.90
15274;DHT22;7738;49.532;11.156;2023-05-13T04:28:39;8.00;99.90
15274;DHT22;7738;49.532;11.156;2023-05-13T04:36:12;8.80;99.90
15274;DHT22;7738;49.532;11.156;2023-05-13T04:38:45;8.10;99.90
15274;DHT22;7738;49.532;11.156;2023-05-13T04:41:16;8.70;99.90
15274;DHT22;7738;49.532;11.156;2023-05-13T04:51:21;8.20;99.90
15274;DHT22;7738;49.532;11.156;2023-05-13T04:53:54;8.50;99.90
15274;DHT22;7738;49.532;11.156;2023-05-13T05:01:27;8.40;99.90
15274;DHT22;7738;49.532;11.156;2023-05-13T05:09:03;8.90;99.90
15274;DHT22;7738;49.532;11.156;2023-05-13T05:21:37;9.90;99.90
15274;DHT22;7738;49.532;11.156;2023-05-13T05:24:11;9.50;99.90
15274;DHT22;7738;49.532;11.156;2023-05-13T05:39:18;9.70;99.90
15274;DHT22;7738;49.532;11.156;2023-05-13T05:51:51;10.00;99.90
15274;DHT22;7738;49.532;11.156;2023-05-13T05:54:24;10.10;99.90
15274;DHT22;7738;49.532;11.156;2023-05-13T06:09:29;10.40;99.90
15274;DHT22;7738;49.532;11.156;2023-05-13T06:24:37;10.70;99.90
15274;DHT22;7738;49.532;11.156;2023-05-13T06:27:09;10.70;99.90
15274;DHT22;7738;49.532;11.156;2023-05-13T06:39:47;10.80;99.90
15274;DHT22;7738;49.532;11.156;2023-05-13T06:55:04;11.00;99.90
15274;DHT22;7738;49.532;11.156;2023-05-13T07:00:10;11.10;99.90
15274;DHT22;7738;49.532;11.156;2023-05-13T07:10:15;11.30;99.90
15274;DHT22;7738;49.532;11.156;2023-05-13T07:25:22;11.60;99.90
15274;DHT22;7738;49.532;11.156;2023-05-13T07:27:52;11.60;99.90
15274;DHT22;7738;49.532;11.156;2023-05-13T07:30:22;11.50;99.90
15274;DHT22;7738;49.532;11.156;2023-05-13T07:32:52;11.40;99.90
15274;DHT22;7738;49.532;11.156;2023-05-13T07:35:23;11.50;99.90
15274;DHT22;7738;49.532;11.156;2023-05-13T07:37:53;11.50;99.90
15274;DHT22;7738;49.532;11.156;2023-05-13T07:40:25;11.40;99.90
15274;DHT22;7738;49.532;11.156;2023-05-13T07:45:26;12.00;99.90
15274;DHT22;7738;49.532;11.156;2023-05-13T07:50:26;11.90;99.90
15274;DHT22;7738;49.532;11.156;2023-05-13T07:55:29;12.00;99.90
15274;DHT22;7738;49.532;11.156;2023-05-13T07:58:00;11.60;99.90
15274;DHT22;7738;49.532;11.156;2023-05-13T08:03:00;11.70;99.90
15274;DHT22;7738;49.532;11.156;2023-05-13T08:10:33;12.40;99.90
15274;DHT22;7738;49.532;11.156;2023-05-13T08:13:04;12.30;99.90
15274;DHT22;7738;49.532;11.156;2023-05-13T08:30:39;12.40;99.90
15274;DHT22;7738;49.532;11.156;2023-05-13T08:33:10;12.50;99.90
15274;DHT22;7738;49.532;11.156;2023-05-13T08:40:44;7.50;99.90
15274;DHT22;7738;49.532;11.156;2023-05-13T08:45:46;12.00;99.90
15274;DHT22;7738;49.532;11.156;2023-05-13T08:48:17;12.20;99.90
15274;DHT22;7738;49.532;11.156;2023-05-13T08:50:48;12.30;99.90
15274;DHT22;7738;49.532;11.156;2023-05-13T08:53:20;12.50;99.90
15274;DHT22;7738;49.532;11.156;2023-05-13T08:55:54;12.60;99.90
15274;DHT22;7738;49.532;11.156;2023-05-13T08:58:25;12.60;99.90
15274;DHT22;7738;49.532;11.156;2023-05-13T09:00:55;12.40;99.90
15274;DHT22;7738;49.532;11.156;2023-05-13T09:03:27;12.50;99.90
15274;DHT22;7738;49.532;11.156;2023-05-13T09:06:01;12.50;99.90
15274;DHT22;7738;49.532;11.156;2023-05-13T09:11:05;12.60;99.90
15274;DHT22;7738;49.532;11.156;2023-05-13T09:13:35;12.40;99.90
15274;DHT22;7738;49.532;11.156;2023-05-13T09:16:05;12.30;99.90
15274;DHT22;7738;49.532;11.156;2023-05-13T09:18:35;12.60;99.90
15274;DHT22;7738;49.532;11.156;2023-05-13T09:21:21;12.60;99.90
15274;DHT22;7738;49.532;11.156;2023-05-13T09:24:04;12.80;99.90
15274;DHT22;7738;49.532;11.156;2023-05-13T09:26:41;12.70;99.90
15274;DHT22;7738;49.532;11.156;2023-05-13T09:29:21;12.70;99.90
15274;DHT22;7738;49.532;11.156;2023-05-13T09:31:53;12.70;99.90
15274;DHT22;7738;49.532;11.156;2023-05-13T09:34:25;12.80;99.90
15274;DHT22;7738;49.532;11.156;2023-05-13T09:37:00;12.80;99.90
15274;DHT22;7738;49.532;11.156;2023-05-13T09:39:32;13.30;99.90
15274;DHT22;7738;49.532;11.156;2023-05-13T09:44:37;12.80;99.90
15274;DHT22;7738;49.532;11.156;2023-05-13T09:47:10;12.90;99.90
15274;DHT22;7738;49.532;11.156;2023-05-13T09:52:15;12.70;99.90
15274;DHT22;7738;49.532;11.156;2023-05-13T09:54:45;13.60;99.90
15274;DHT22;7738;49.532;11.156;2023-05-13T09:57:18;12.70;99.90
15274;DHT22;7738;49.532;11.156;2023-05-13T10:02:20;13.00;99.90
15274;DHT22;7738;49.532;11.156;2023-05-13T10:07:22;12.90;99.90
15274;DHT22;7738;49.532;11.156;2023-05-13T10:09:57;13.60;99.90
15274;DHT22;7738;49.532;11.156;2023-05-13T10:12:31;12.80;99.90
15274;DHT22;7738;49.532;11.156;2023-05-13T10:15:04;13.10;99.90
15274;DHT22;7738;49.532;11.156;2023-05-13T10:17:35;13.30;99.90
15274;DHT22;7738;49.532;11.156;2023-05-13T10:20:07;13.00;99.90
15274;DHT22;7738;49.532;11.156;2023-05-13T10:22:38;12.80;99.90
15274;DHT22;7738;49.532;11.156;2023-05-13T10:25:09;12.90;99.90
15274;DHT22;7738;49.532;11.156;2023-05-13T10:27:43;12.70;99.90
15274;DHT22;7738;49.532;11.156;2023-05-13T10:30:14;14.20;99.90
15274;DHT22;7738;49.532;11.156;2023-05-13T10:32:46;13.10;99.90
15274;DHT22;7738;49.532;11.156;2023-05-13T10:35:17;12.90;99.90
15274;DHT22;7738;49.532;11.156;2023-05-13T10:38:00;13.50;99.90
15274;DHT22;7738;49.532;11.156;2023-05-13T10:40:55;13.50;99.90
15274;DHT22;7738;49.532;11.156;2023-05-13T10:43:33;13.70;99.90
15274;DHT22;7738;49.532;11.156;2023-05-13T10:46:05;13.40;99.90
15274;DHT22;7738;49.532;11.156;2023-05-13T10:48:40;13.60;99.90
15274;DHT22;7738;49.532;11.156;2023-05-13T10:51:13;13.70;99.90
15274;DHT22;7738;49.532;11.156;2023-05-13T10:53:47;13.50;99.90
15274;DHT22;7738;49.532;11.156;2023-05-13T10:56:19;13.80;99.90
15274;DHT22;7738;49.532;11.156;2023-05-13T10:59:00;13.80;99.90
15274;DHT22;7738;49.532;11.156;2023-05-13T11:01:34;14.10;99.90
15274;DHT22;7738;49.532;11.156;2023-05-13T11:06:37;13.90;99.90
15274;DHT22;7738;49.532;11.156;2023-05-13T11:09:10;13.90;99.90
15274;DHT22;7738;49.532;11.156;2023-05-13T11:14:18;13.90;99.90
15274;DHT22;7738;49.532;11.156;2023-05-13T11:16:52;14.10;99.90
15274;DHT22;7738;49.532;11.156;2023-05-13T11:19:25;13.70;99.90
15274;DHT22;7738;49.532;11.156;2023-05-13T11:21:57;13.70;99.90
15274;DHT22;7738;49.532;11.156;2023-05-13T11:27:11;13.40;99.90
15274;DHT22;7738;49.532;11.156;2023-05-13T11:29:50;13.40;99.90
15274;DHT22;7738;49.532;11.156;2023-05-13T11:32:51;13.40;99.90
15274;DHT22;7738;49.532;11.156;2023-05-13T11:35:23;13.30;99.90
15274;DHT22;7738;49.532;11.156;2023-05-13T11:37:54;13.20;99.90
15274;DHT22;7738;49.532;11.156;2023-05-13T11:40:27;13.00;99.90
15274;DHT22;7738;49.532;11.156;2023-05-13T11:45:37;13.30;99.90
15274;DHT22;7738;49.532;11.156;2023-05-13T11:48:18;13.10;99.90
15274;DHT22;7738;49.532;11.156;2023-05-13T11:50:49;12.90;99.90
15274;DHT22;7738;49.532;11.156;2023-05-13T11:53:20;13.20;99.90
15274;DHT22;7738;49.532;11.156;2023-05-13T11:55:51;12.60;99.90
15274;DHT22;7738;49.532;11.156;2023-05-13T12:00:54;13.20;99.90
15274;DHT22;7738;49.532;11.156;2023-05-13T12:03:26;13.30;99.90
15274;DHT22;7738;49.532;11.156;2023-05-13T12:06:00;14.40;99.90
15274;DHT22;7738;49.532;11.156;2023-05-13T12:16:05;17.90;99.90
15274;DHT22;7738;49.532;11.156;2023-05-13T12:21:14;16.60;99.80
15274;DHT22;7738;49.532;11.156;2023-05-13T12:31:18;14.80;99.90
15274;DHT22;7738;49.532;11.156;2023-05-13T12:33:49;14.90;99.90
15274;DHT22;7738;49.532;11.156;2023-05-13T12:36:21;14.50;99.90
15274;DHT22;7738;49.532;11.156;2023-05-13T12:38:57;14.40;99.90
15274;DHT22;7738;49.532;11.156;2023-05-13T12:41:29;18.60;99.90
15274;DHT22;7738;49.532;11.156;2023-05-13T12:44:01;13.90;99.90
15274;DHT22;7738;49.532;11.156;2023-05-13T12:46:34;14.40;99.90
15274;DHT22;7738;49.532;11.156;2023-05-13T12:49:08;14.30;99.90
15274;DHT22;7738;49.532;11.156;2023-05-13T12:51:38;14.30;99.90
15274;DHT22;7738;49.532;11.156;2023-05-13T12:54:09;14.40;99.90
15274;DHT22;7738;49.532;11.156;2023-05-13T13:01:44;15.10;99.90
15274;DHT22;7738;49.532;11.156;2023-05-13T13:04:15;14.40;99.90
15274;DHT22;7738;49.532;11.156;2023-05-13T13:06:46;14.80;99.90
15274;DHT22;7738;49.532;11.156;2023-05-13T13:09:16;14.80;99.90
15274;DHT22;7738;49.532;11.156;2023-05-13T13:11:46;15.20;99.90
15274;DHT22;7738;49.532;11.156;2023-05-13T13:14:18;16.20;99.90
15274;DHT22;7738;49.532;11.156;2023-05-13T13:19:22;15.20;99.90
15274;DHT22;7738;49.532;11.156;2023-05-13T13:26:53;15.20;99.90
15274;DHT22;7738;49.532;11.156;2023-05-13T13:29:24;15.20;99.90
15274;DHT22;7738;49.532;11.156;2023-05-13T13:31:57;15.40;99.90
15274;DHT22;7738;49.532;11.156;2023-05-13T13:34:27;15.50;99.90
15274;DHT22;7738;49.532;11.156;2023-05-13T13:39:28;15.00;99.90
15274;DHT22;7738;49.532;11.156;2023-05-13T13:43:14;15.00;99.90
15274;DHT22;7738;49.532;11.156;2023-05-13T14:05:54;14.70;99.90
15274;DHT22;7738;49.532;11.156;2023-05-13T14:08:24;14.70;99.90
15274;DHT22;7738;49.532;11.156;2023-05-13T14:10:54;14.80;99.90
15274;DHT22;7738;49.532;11.156;2023-05-13T14:13:27;14.80;99.90
15274;DHT22;7738;49.532;11.156;2023-05-13T14:15:57;14.80;99.90
15274;DHT22;7738;49.532;11.156;2023-05-13T14:18:27;14.80;99.90
15274;DHT22;7738;49.532;11.156;2023-05-13T14:20:58;14.80;99.90
15274;DHT22;7738;49.532;11.156;2023-05-13T14:23:28;14.70;99.90
15274;DHT22;7738;49.532;11.156;2023-05-13T14:25:58;14.80;99.90
15274;DHT22;7738;49.532;11.156;2023-05-13T14:28:31;14.70;99.90
15274;DHT22;7738;49.532;11.156;2023-05-13T14:31:01;14.60;99.90
15274;DHT22;7738;49.532;11.156;2023-05-13T14:33:31;14.60;99.90
15274;DHT22;7738;49.532;11.156;2023-05-13T14:36:02;14.60;99.90
15274;DHT22;7738;49.532;11.156;2023-05-13T14:38:32;14.60;99.90
15274;DHT22;7738;49.532;11.156;2023-05-13T14:41:02;14.70;99.90
15274;DHT22;7738;49.532;11.156;2023-05-13T14:43:35;13.60;99.90
15274;DHT22;7738;49.532;11.156;2023-05-13T14:46:05;14.60;99.90
15274;DHT22;7738;49.532;11.156;2023-05-13T14:48:35;14.60;99.90
15274;DHT22;7738;49.532;11.156;2023-05-13T14:51:05;14.60;99.90
15274;DHT22;7738;49.532;11.156;2023-05-13T14:53:37;14.80;99.90
15274;DHT22;7738;49.532;11.156;2023-05-13T14:56:07;14.80;99.90
15274;DHT22;7738;49.532;11.156;2023-05-13T14:58:40;14.90;99.90
15274;DHT22;7738;49.532;11.156;2023-05-13T15:01:10;18.00;99.90
15274;DHT22;7738;49.532;11.156;2023-05-13T15:03:40;15.40;99.90
15274;DHT22;7738;49.532;11.156;2023-05-13T15:08:41;15.40;99.90
15274;DHT22;7738;49.532;11.156;2023-05-13T15:56:36;15.60;99.90
15274;DHT22;7738;49.532;11.156;2023-05-13T16:24:17;14.70;99.90
15274;DHT22;7738;49.532;11.156;2023-05-13T16:29:21;14.70;99.90
15274;DHT22;7738;49.532;11.156;2023-05-13T16:34:28;14.40;99.90
15274;DHT22;7738;49.532;11.156;2023-05-13T17:12:11;13.80;99.90
15274;DHT22;7738;49.532;11.156;2023-05-13T17:42:23;12.80;99.90
15274;DHT22;7738;49.532;11.156;2023-05-13T17:44:57;12.60;99.90
15274;DHT22;7738;49.532;11.156;2023-05-13T17:47:28;12.70;99.90
15274;DHT22;7738;49.532;11.156;2023-05-13T17:49:58;12.70;99.90
15274;DHT22;7738;49.532;11.156;2023-05-13T17:52:29;12.60;99.90
15274;DHT22;7738;49.532;11.156;2023-05-13T17:54:59;14.00;99.90
15274;DHT22;7738;49.532;11.156;2023-05-13T17:57:30;12.50;99.90
15274;DHT22;7738;49.532;11.156;2023-05-13T18:00:03;12.50;99.90
15274;DHT22;7738;49.532;11.156;2023-05-13T18:02:34;12.40;99.90
15274;DHT22;7738;49.532;11.156;2023-05-13T18:05:08;12.70;99.90
15274;DHT22;7738;49.532;11.156;2023-05-13T18:07:38;12.10;99.90
15274;DHT22;7738;49.532;11.156;2023-05-13T18:10:09;12.40;99.90
15274;DHT22;7738;49.532;11.156;2023-05-13T18:22:43;12.10;99.90
15274;DHT22;7738;49.532;11.156;2023-05-13T18:25:14;12.10;99.90
15274;DHT22;7738;49.532;11.156;2023-05-13T18:27:44;12.00;99.90
15274;DHT22;7738;49.532;11.156;2023-05-13T18:30:18;11.90;99.90
15274;DHT22;7738;49.532;11.156;2023-05-13T18:32:49;11.80;99.90
15274;DHT22;7738;49.532;11.156;2023-05-13T18:35:19;11.60;99.90
15274;DHT22;7738;49.532;11.156;2023-05-13T18:37:50;11.40;99.90
15274;DHT22;7738;49.532;11.156;2023-05-13T18:40:20;11.80;99.90
15274;DHT22;7738;49.532;11.156;2023-05-13T18:42:50;11.80;99.90
15274;DHT22;7738;49.532;11.156;2023-05-13T18:45:23;11.50;99.90
15274;DHT22;7738;49.532;11.156;2023-05-13T18:47:53;11.60;99.90
15274;DHT22;7738;49.532;11.156;2023-05-13T18:50:24;11.60;99.90
15274;DHT22;7738;49.532;11.156;2023-05-13T18:52:54;11.50;99.90
15274;DHT22;7738;49.532;11.156;2023-05-13T18:55:24;11.30;99.90
15274;DHT22;7738;49.532;11.156;2023-05-13T18:57:54;11.50;99.90
15274;DHT22;7738;49.532;11.156;2023-05-13T19:02:57;11.40;99.90
15274;DHT22;7738;49.532;11.156;2023-05-13T19:05:27;11.40;99.90
15274;DHT22;7738;49.532;11.156;2023-05-13T19:07:57;11.30;99.90
15274;DHT22;7738;49.532;11.156;2023-05-13T19:10:27;11.20;99.90
15274;DHT22;7738;49.532;11.156;2023-05-13T19:13:05;11.00;99.90
15274;DHT22;7738;49.532;11.156;2023-05-13T19:15:38;10.90;99.90
15274;DHT22;7738;49.532;11.156;2023-05-13T19:18:08;11.10;99.90
15274;DHT22;7738;49.532;11.156;2023-05-13T19:20:38;11.10;99.90
15274;DHT22;7738;49.532;11.156;2023-05-13T19:23:09;11.00;99.90
15274;DHT22;7738;49.532;11.156;2023-05-13T19:25:39;11.00;99.90
15274;DHT22;7738;49.532;11.156;2023-05-13T19:28:11;11.00;99.90
15274;DHT22;7738;49.532;11.156;2023-05-13T19:30:43;11.10;99.90
15274;DHT22;7738;49.532;11.156;2023-05-13T19:35:44;10.70;99.90
15274;DHT22;7738;49.532;11.156;2023-05-13T19:45:48;10.70;99.90
15274;DHT22;7738;49.532;11.156;2023-05-13T19:48:18;10.70;99.90
15274;DHT22;7738;49.532;11.156;2023-05-13T19:50:48;10.70;99.90
15274;DHT22;7738;49.532;11.156;2023-05-13T19:53:19;10.70;99.90
15274;DHT22;7738;49.532;11.156;2023-05-13T19:55:49;10.90;99.90
15274;DHT22;7738;49.532;11.156;2023-05-13T19:58:19;10.50;99.90
15274;DHT22;7738;49.532;11.156;2023-05-13T20:00:52;10.70;99.90
15274;DHT22;7738;49.532;11.156;2023-05-13T20:03:23;10.60;99.90
15274;DHT22;7738;49.532;11.156;2023-05-13T20:05:53;10.50;99.90
15274;DHT22;7738;49.532;11.156;2023-05-13T20:08:23;10.50;99.90
15274;DHT22;7738;49.532;11.156;2023-05-13T20:10:55;10.40;99.90
15274;DHT22;7738;49.532;11.156;2023-05-13T20:13:25;10.40;99.90
15274;DHT22;7738;49.532;11.156;2023-05-13T20:15:58;10.00;99.90
15274;DHT22;7738;49.532;11.156;2023-05-13T20:18:28;10.20;99.90
15274;DHT22;7738;49.532;11.156;2023-05-13T20:20:59;10.20;99.90
15274;DHT22;7738;49.532;11.156;2023-05-13T20:23:29;10.10;99.90
15274;DHT22;7738;49.532;11.156;2023-05-13T20:25:59;10.00;99.90
15274;DHT22;7738;49.532;11.156;2023-05-13T20:28:29;10.00;99.90
15274;DHT22;7738;49.532;11.156;2023-05-13T20:31:05;9.90;99.90
15274;DHT22;7738;49.532;11.156;2023-05-13T20:33:36;9.90;99.90
15274;DHT22;7738;49.532;11.156;2023-05-13T20:36:06;9.90;99.90
15274;DHT22;7738;49.532;11.156;2023-05-13T20:38:36;9.90;99.90
15274;DHT22;7738;49.532;11.156;2023-05-13T20:41:06;9.90;99.90
15274;DHT22;7738;49.532;11.156;2023-05-13T20:43:37;9.90;99.90
15274;DHT22;7738;49.532;11.156;2023-05-13T20:46:10;9.90;99.90
15274;DHT22;7738;49.532;11.156;2023-05-13T20:48:43;9.80;99.90
15274;DHT22;7738;49.532;11.156;2023-05-13T20:53:44;9.70;99.90
15274;DHT22;7738;49.532;11.156;2023-05-13T20:56:15;9.80;99.90
15274;DHT22;7738;49.532;11.156;2023-05-13T20:58:45;9.80;99.90
15274;DHT22;7738;49.532;11.156;2023-05-13T21:01:17;9.50;99.90
15274;DHT22;7738;49.532;11.156;2023-05-13T21:03:48;9.60;99.90
15274;DHT22;7738;49.532;11.156;2023-05-13T21:06:18;9.70;99.90
15274;DHT22;7738;49.532;11.156;2023-05-13T21:08:48;9.70;99.90
15274;DHT22;7738;49.532;11.156;2023-05-13T21:11:18;9.70;99.90
15274;DHT22;7738;49.532;11.156;2023-05-13T21:13:48;9.70;99.90
15274;DHT22;7738;49.532;11.156;2023-05-13T21:16:21;9.60;99.90
15274;DHT22;7738;49.532;11.156;2023-05-13T21:18:51;9.60;99.90
15274;DHT22;7738;49.532;11.156;2023-05-13T21:21:21;9.60;99.90
15274;DHT22;7738;49.532;11.156;2023-05-13T21:23:51;9.60;99.90
15274;DHT22;7738;49.532;11.156;2023-05-13T21:26:22;9.50;99.90
15274;DHT22;7738;49.532;11.156;2023-05-13T21:28:53;9.50;99.90
15274;DHT22;7738;49.532;11.156;2023-05-13T21:31:25;9.50;99.90
15274;DHT22;7738;49.532;11.156;2023-05-13T21:33:55;9.50;99.90
15274;DHT22;7738;49.532;11.156;2023-05-13T21:36:25;9.50;99.90
15274;DHT22;7738;49.532;11.156;2023-05-13T21:38:55;9.40;99.90
15274;DHT22;7738;49.532;11.156;2023-05-13T21:41:25;9.30;99.90
15274;DHT22;7738;49.532;11.156;2023-05-13T21:43:56;9.30;99.90
15274;DHT22;7738;49.532;11.156;2023-05-13T21:46:28;9.10;99.90
15274;DHT22;7738;49.532;11.156;2023-05-13T21:48:58;8.90;99.90
15274;DHT22;7738;49.532;11.156;2023-05-13T21:51:29;9.10;99.90
15274;DHT22;7738;49.532;11.156;2023-05-13T21:53:59;9.00;99.90
15274;DHT22;7738;49.532;11.156;2023-05-13T21:56:29;9.00;99.90
15274;DHT22;7738;49.532;11.156;2023-05-13T21:58:59;8.90;99.90
15274;DHT22;7738;49.532;11.156;2023-05-13T22:01:31;8.90;99.90
15274;DHT22;7738;49.532;11.156;2023-05-13T22:04:01;8.90;99.90
15274;DHT22;7738;49.532;11.156;2023-05-13T22:06:32;8.90;99.90
15274;DHT22;7738;49.532;11.156;2023-05-13T22:09:02;8.80;99.90
15274;DHT22;7738;49.532;11.156;2023-05-13T22:11:32;8.80;99.90
15274;DHT22;7738;49.532;11.156;2023-05-13T22:14:02;8.80;99.90
15274;DHT22;7738;49.532;11.156;2023-05-13T22:16:35;8.60;99.90
15274;DHT22;7738;49.532;11.156;2023-05-13T22:19:06;8.70;99.90
15274;DHT22;7738;49.532;11.156;2023-05-13T22:21:36;8.70;99.90
15274;DHT22;7738;49.532;11.156;2023-05-13T22:24:06;8.70;99.90
15274;DHT22;7738;49.532;11.156;2023-05-13T22:26:36;8.70;99.90
15274;DHT22;7738;49.532;11.156;2023-05-13T22:29:08;8.70;99.90
15274;DHT22;7738;49.532;11.156;2023-05-13T22:31:40;8.30;99.90
15274;DHT22;7738;49.532;11.156;2023-05-13T22:34:10;8.70;99.90
15274;DHT22;7738;49.532;11.156;2023-05-13T22:36:41;8.60;99.90
15274;DHT22;7738;49.532;11.156;2023-05-13T22:39:11;8.60;99.90
15274;DHT22;7738;49.532;11.156;2023-05-13T22:41:42;8.60;99.90
15274;DHT22;7738;49.532;11.156;2023-05-13T22:44:12;8.60;99.90
15274;DHT22;7738;49.532;11.156;2023-05-13T22:46:44;8.60;99.90
15274;DHT22;7738;49.532;11.156;2023-05-13T22:49:15;8.50;99.90
15274;DHT22;7738;49.532;11.156;2023-05-13T22:51:45;8.50;99.90
15274;DHT22;7738;49.532;11.156;2023-05-13T22:54:15;8.40;99.90
15274;DHT22;7738;49.532;11.156;2023-05-13T22:56:45;8.30;99.90
15274;DHT22;7738;49.532;11.156;2023-05-13T22:59:15;8.20;99.90
15274;DHT22;7738;49.532;11.156;2023-05-13T23:01:47;8.20;99.90
15274;DHT22;7738;49.532;11.156;2023-05-13T23:04:18;8.10;99.90
15274;DHT22;7738;49.532;11.156;2023-05-13T23:06:48;8.80;99.90
15274;DHT22;7738;49.532;11.156;2023-05-13T23:09:18;8.00;99.90
15274;DHT22;7738;49.532;11.156;2023-05-13T23:11:48;8.00;99.90
15274;DHT22;7738;49.532;11.156;2023-05-13T23:14:18;8.00;99.90
15274;DHT22;7738;49.532;11.156;2023-05-13T23:16:51;7.90;99.90
15274;DHT22;7738;49.532;11.156;2023-05-13T23:19:22;7.90;99.90
15274;DHT22;7738;49.532;11.156;2023-05-13T23:21:52;7.80;99.90
15274;DHT22;7738;49.532;11.156;2023-05-13T23:24:22;7.80;99.90
15274;DHT22;7738;49.532;11.156;2023-05-13T23:26:52;7.80;99.90
15274;DHT22;7738;49.532;11.156;2023-05-13T23:29:23;7.80;99.90
15274;DHT22;7738;49.532;11.156;2023-05-13T23:31:56;7.70;99.90
15274;DHT22;7738;49.532;11.156;2023-05-13T23:34:26;7.70;99.90
15274;DHT22;7738;49.532;11.156;2023-05-13T23:36:56;7.60;99.90
15274;DHT22;7738;49.532;11.156;2023-05-13T23:39:26;7.60;99.90
15274;DHT22;7738;49.532;11.156;2023-05-13T23:41:56;7.50;99.90
15274;DHT22;7738;49.532;11.156;2023-05-13T23:44:27;7.50;99.90
15274;DHT22;7738;49.532;11.156;2023-05-13T23:46:59;7.50;99.90
15274;DHT22;7738;49.532;11.156;2023-05-13T23:49:29;7.50;99.90
15274;DHT22;7738;49.532;11.156;2023-05-13T23:52:00;7.40;99.90
15274;DHT22;7738;49.532;11.156;2023-05-13T23:54:30;8.30;99.90
15274;DHT22;7738;49.532;11.156;2023-05-13T23:57:00;7.20;99.90
15274;DHT22;7738;49.532;11.156;2023-05-13T23:59:30;7.40;99.90
